Weather observations for the past three days for
Indianapolis Metro Airport
Imperial (Metric)
Date Time (edt) Wind (mph) Vis. (mi.) Weather Sky Cond. Temperature (ºF) Relative Humidity Wind Chill (°F) Heat Index (°F) Pressure Precipitation (in)
Air Dwpt 6 hour altimeter (in) sea level (mb) 1 hr 3 hr 6 hr
Max. Min.
09 19:35 W 10 G 22 10.00 Fair CLR 71.6 53.6 53% 29.75 0.0
09 19:15 W 10 G 24 10.00 Fair CLR 72 53.6 53% 29.75 0.0
09 18:55 W 10 10.00 Fair CLR 72.9 52.2 48% 29.75 0.0
09 18:35 W 12 G 22 10.00 A Few Clouds FEW050 72.7 54 52% 29.74 0.0
09 18:15 W 13 G 21 10.00 A Few Clouds FEW050 72.7 54.1 52% 29.74 0.0
09 17:55 W 12 G 20 10.00 Fair CLR 73.8 53.8 50% 29.74 0.0
09 17:35 W 14 G 23 10.00 A Few Clouds FEW360 73.4 52.3 48% 29.74 0.0
09 17:15 W 12 10.00 Fair CLR 73.2 52.3 48% 29.73 0.0
09 16:55 W 16 10.00 Fair CLR 73.4 52 47% 29.73 0.0
09 16:35 W 15 G 24 10.00 Fair CLR 72.7 52.7 50% 29.74 0.0
09 16:15 SW 13 10.00 A Few Clouds FEW055 73.4 54 51% 29.74 0.0
09 15:55 SW 16 G 23 10.00 Fair CLR 73 54.9 53% 29.75 0.0
09 15:35 SW 13 10.00 Fair CLR 72 54.5 54% 29.75 0.0
09 15:15 SW 14 G 20 10.00 Fair CLR 72 55.2 56% 29.75 0.0
09 14:55 SW 13 10.00 A Few Clouds FEW380 71.6 56.7 59% 29.75 0.0
09 14:35 SW 16 G 22 10.00 A Few Clouds FEW370 70.5 55.6 59% 29.76 0.0
09 14:15 SW 12 G 18 10.00 Fair CLR 70 57.9 66% 29.76 0.0
09 13:55 W 14 10.00 A Few Clouds FEW330 68.9 56.8 66% 29.76 0.0
09 13:35 SW 16 10.00 A Few Clouds FEW029 67.6 57.6 70% 29.77 0.0
09 12:55 SW 12 10.00 Fair CLR 66.6 56.8 71% 29.77 0.0
09 12:35 W 10 10.00 Fair CLR 65.8 56.5 72% 29.78 0.0
09 12:15 W 14 10.00 A Few Clouds FEW026 64.9 56.1 73% 29.78 0.0
09 11:55 SW 14 G 20 10.00 A Few Clouds FEW025 64.8 56.1 74% 29.78 0.0
09 11:35 SW 14 G 20 10.00 Fair CLR 63.9 56.1 76% 29.78 0.0
09 11:15 SW 12 10.00 A Few Clouds FEW024 63.9 55.9 76% 29.77 0.0
09 10:55 W 13 10.00 Partly Cloudy SCT023 63.3 55.4 76% 29.77 0.0
09 10:35 SW 10 G 18 10.00 Fair CLR 62.2 55.4 78% 29.77 0.0
09 10:15 SW 9 10.00 Fair CLR 61.7 55.8 81% 29.77 0.0
09 09:55 SW 9 10.00 A Few Clouds FEW014 60.6 56.5 86% 29.77 0.0
09 09:35 SW 10 10.00 A Few Clouds FEW013 59.2 55.9 89% 29.77 0.0
09 09:15 SW 7 10.00 A Few Clouds FEW009 58.6 56.3 92% 29.77 0.0
09 08:55 SW 7 10.00 Partly Cloudy SCT007 57.6 56.3 96% 29.77 0.0
09 08:35 SW 6 10.00 Partly Cloudy SCT005 56.5 55.9 98% 29.77 0.0
09 08:15 SW 5 10.00 Overcast OVC004 55.6 55.6 100% 29.77 0.0
09 07:55 S 6 10.00 Mostly Cloudy BKN004 54.3 54.1 99% 29.76 0.0
09 07:35 SW 6 9.00 Partly Cloudy SCT005 54.1 54.1 100% 29.76 0.0
09 07:15 SW 3 9.00 Partly Cloudy SCT031 SCT055 53.4 53.4 100% 29.76 0.0
09 06:55 SW 3 9.00 Overcast BKN030 OVC055 53.8 53.8 100% 29.76 0.0
09 06:35 SW 3 10.00 Overcast OVC027 54.1 54.1 100% 29.75 0.0
09 06:15 SW 3 10.00 Mostly Cloudy BKN026 54.1 54.1 100% 29.76 0.0
09 05:55 SW 6 10.00 A Few Clouds FEW009 54.3 54.3 100% 29.75 0.0
09 05:35 SW 6 10.00 Mostly Cloudy BKN009 54.5 54.5 100% 29.75 0.0
09 05:15 SW 8 10.00 Mostly Cloudy BKN010 54.9 54.9 100% 29.76 0.0
09 04:55 SW 10 10.00 Mostly Cloudy SCT009 BKN065 BKN140 55.2 55.2 100% 29.76 0.0
09 04:35 SW 10 10.00 A Few Clouds FEW035 55.2 55.2 100% 29.75 0.0
09 04:15 SW 6 10.00 A Few Clouds FEW036 55 55 100% 29.76 0.0
09 03:55 SW 5 10.00 Mostly Cloudy SCT036 BKN060 55.2 55.2 100% 29.76 0.0
09 03:35 SW 5 10.00 Mostly Cloudy FEW039 BKN055 BKN080 55.2 55.2 100% 29.76 0.0
09 03:15 SW 7 9.00 Light Rain BKN055 BKN070 OVC080 55.4 55.4 100% 29.76 0.0
09 02:55 SW 7 8.00 Light Rain FEW007 BKN049 BKN070 55.2 55.2 100% 29.77 0.0
09 02:35 SW 6 7.00 Light Rain BKN006 BKN011 OVC047 55.4 55.4 100% 29.78 0.0
09 02:15 SW 9 5.00 Light Rain Fog/Mist BKN007 OVC060 55.6 55.6 100% 29.79 0.0
09 01:55 SW 8 5.00 Light Rain Fog/Mist SCT010 BKN026 OVC060 55.6 55.6 100% 29.8 0.0
09 01:35 SW 8 8.00 Light Rain FEW010 OVC026 55.8 55.8 100% 29.81 0.0
09 01:15 SW 7 10.00 Overcast OVC025 55.8 55.8 100% 29.81 0.0
09 00:55 SW 7 10.00 Overcast FEW007 SCT017 OVC025 55.8 55.8 100% 29.8 0.0
09 00:35 SW 9 10.00 Overcast FEW007 BKN019 OVC027 55.6 55.6 100% 29.81 0.0
09 00:15 SW 6 10.00 Overcast FEW013 SCT028 SCT060 OVC085 55.6 55.6 100% 29.81 0.0
08 23:55 SW 6 10.00 Overcast FEW042 OVC080 55.6 55.6 100% 29.8 0.0
08 23:35 SW 8 9.00 Light Rain OVC075 55.6 55.6 100% 29.8 0.0
08 23:15 S 6 8.00 Light Rain OVC070 55.4 55.4 100% 29.8 0.0
08 22:55 SW 9 9.00 Light Rain OVC070 55.4 55.4 100% 29.81 0.0
08 22:35 SW 7 8.00 Light Rain OVC070 55.4 55.4 100% 29.81 0.0
08 22:15 SW 10 9.00 Light Rain OVC070 56.1 55.2 97% 29.82 0.0
08 21:55 SW 9 8.00 Light Rain BKN070 56.1 55.8 99% 29.81 0.0
08 21:35 SW 8 9.00 Light Rain OVC065 55.9 55.9 100% 29.8 0.0
08 21:15 SW 8 7.00 Light Rain OVC070 55.8 55.8 100% 29.8 0.0
08 20:55 SW 6 7.00 Light Rain OVC070 55.6 55.6 100% 29.81 0.0
08 20:35 SW 5 7.00 Light Rain OVC070 55.6 55.6 100% 29.81 0.0
08 20:15 SW 8 6.00 Light Rain Fog/Mist FEW044 OVC070 55.8 55.8 100% 29.81 0.0
08 19:55 SW 6 4.00 Light Rain Fog/Mist FEW035 OVC065 55.6 55.6 100% 29.82 0.0
08 19:35 SW 8 8.00 Light Rain OVC060 55.8 55.8 100% 29.81 0.0
08 19:15 S 7 4.00 Light Rain Fog/Mist SCT050 OVC060 55.6 55.6 100% 29.82 0.0
08 18:55 SW 8 6.00 Light Rain Fog/Mist SCT049 OVC065 55.6 55.6 100% 29.82 0.0
08 18:35 S 6 2.50 Light Rain Fog/Mist FEW002 OVC065 55.6 55.6 100% 29.82 0.0
08 18:15 W 3 3.00 Light Rain Fog/Mist FEW042 OVC060 55.8 55.8 100% 29.83 0.0
08 17:55 NW 7 4.00 Light Rain Fog/Mist FEW047 OVC060 55.8 55.8 100% 29.83 0.0
08 17:35 NW 7 5.00 Light Rain Fog/Mist SCT048 OVC060 56.3 55.8 98% 29.82 0.0
08 17:15 NW 10 4.00 Light Rain Fog/Mist FEW002 BKN046 OVC060 56.8 55.2 94% 29.82 0.0
08 16:55 W 6 7.00 Light Rain OVC060 62.4 50.7 66% 29.82 0.0
08 16:35 W 6 7.00 Light Rain BKN065 OVC075 63.9 49.1 59% 29.81 0.0
08 16:15 SW 7 9.00 Mostly Cloudy BKN070 BKN095 65.3 47.1 52% 29.82 0.0
08 15:55 SW 9 10.00 Mostly Cloudy FEW070 BKN095 65.1 46.9 52% 29.82 0.0
08 15:35 SW 9 10.00 Mostly Cloudy BKN090 66 47.5 51% 29.83 0.0
08 15:15 SW 6 10.00 Overcast OVC095 64 46.8 54% 29.84 0.0
08 14:55 SW 9 10.00 Overcast OVC090 63.5 46.6 54% 29.85 0.0
08 14:35 SW 14 G 20 10.00 Overcast OVC090 63.1 45.3 52% 29.86 0.0
08 14:15 SW 10 G 20 10.00 Overcast OVC090 62.6 44.8 52% 29.87 0.0
08 13:55 SW 12 G 18 10.00 Overcast OVC085 62.8 45 52% 29.87 0.0
08 13:35 SW 10 10.00 Overcast BKN090 OVC110 63.3 44.2 50% 29.87 0.0
08 13:15 SW 14 G 23 10.00 Mostly Cloudy BKN090 BKN370 65.3 44.8 48% 29.87 0.0
08 12:55 SW 14 G 20 10.00 Overcast OVC095 66 45.1 47% 29.88 0.0
08 12:35 SW 15 G 20 10.00 Mostly Cloudy SCT100 SCT260 BKN360 66.6 45.9 47% 29.9 0.0
08 12:15 SW 13 10.00 Partly Cloudy SCT085 SCT110 66.2 45.3 47% 29.9 0.0
08 11:55 SW 12 10.00 Overcast OVC085 64 45 50% 29.91 0.0
08 11:35 SW 13 10.00 Mostly Cloudy BKN085 63.5 43.9 49% 29.91 0.0
08 11:15 SW 9 10.00 Mostly Cloudy BKN095 64 44.6 49% 29.91 0.0
08 10:55 SW 10 10.00 Partly Cloudy SCT100 63.1 44.1 50% 29.92 0.0
08 10:35 SW 10 10.00 Fair CLR 61.9 43.3 51% 29.92 0.0
08 10:15 SW 12 10.00 A Few Clouds FEW090 61 42.4 51% 29.93 0.0
08 09:55 W 12 10.00 Partly Cloudy SCT090 59.2 41.9 53% 29.93 0.0
08 09:35 SW 10 G 17 10.00 Fair CLR 59 41.2 52% 29.93 0.0
08 09:15 SW 9 10.00 Fair CLR 57.9 40.5 52% 29.94 0.0
08 08:55 Vrbl 3 10.00 Fair CLR 57.2 39.9 53% 29.94 0.0
08 08:35 W 3 10.00 Fair CLR 55.8 39.6 55% 29.94 0.0
08 08:15 SW 6 10.00 Fair CLR 53.8 38.5 56% 29.94 0.0
08 07:55 Calm 10.00 Fair CLR 52.2 38.5 60% 29.94 0.0
08 07:35 W 3 10.00 Fair CLR 50.4 37.8 62% 29.93 0.0
08 07:15 W 6 10.00 Fair CLR 49.8 37.4 63% 48 29.93 0.0
08 06:55 Vrbl 6 10.00 Fair CLR 50.5 36.3 58% 29.93 0.0
08 06:35 SW 8 10.00 Fair CLR 50.5 36.9 60% 29.92 0.0
08 06:15 SW 10 10.00 A Few Clouds FEW140 50.9 36.7 58% 29.92 0.0
08 05:55 SW 7 10.00 A Few Clouds FEW140 50.9 36.9 59% 29.92 0.0
08 05:35 SW 8 10.00 Fair CLR 51.4 36.9 58% 29.92 0.0
08 05:15 SW 7 10.00 A Few Clouds FEW120 51.8 37.4 58% 29.92 0.0
08 04:55 SW 8 10.00 Overcast SCT080 OVC120 52.7 37.4 56% 29.92 0.0
08 04:35 SW 9 10.00 Overcast FEW070 OVC090 54 36.9 53% 29.93 0.0
08 04:15 SW 8 10.00 Overcast BKN070 OVC095 54 37.4 54% 29.93 0.0
08 03:55 W 10 10.00 Overcast BKN070 OVC090 53.8 37.4 54% 29.94 0.0
08 03:35 SW 7 G 17 10.00 Overcast FEW075 BKN090 OVC110 53.8 36.7 53% 29.94 0.0
08 03:15 SW 10 10.00 Overcast OVC100 53.4 36 52% 29.94 0.0
08 02:55 SW 9 10.00 Overcast BKN075 OVC090 52.9 36.5 54% 29.93 0.0
08 02:35 SW 8 10.00 Overcast BKN070 OVC100 53.1 36.1 53% 29.94 0.0
08 02:15 SW 9 10.00 Overcast FEW075 OVC100 52.9 36.3 54% 29.94 0.0
08 01:55 SW 8 10.00 Overcast SCT075 OVC110 53.1 36.9 54% 29.95 0.0
08 01:35 SW 9 10.00 Overcast SCT070 OVC100 52.9 36.9 55% 29.95 0.0
08 01:15 SW 7 10.00 Mostly Cloudy BKN100 53.1 37 55% 29.95 0.0
08 00:55 SW 8 10.00 Mostly Cloudy BKN110 52.7 37.6 57% 29.95 0.0
08 00:35 SW 9 10.00 Partly Cloudy SCT100 52 38.8 61% 29.95 0.0
08 00:15 SW 5 10.00 Mostly Cloudy FEW070 SCT100 BKN120 51.3 41 68% 29.94 0.0
07 23:55 SW 3 10.00 Mostly Cloudy SCT075 BKN095 51.4 41.9 70% 29.95 0.0
07 23:35 SW 6 10.00 Partly Cloudy FEW075 SCT110 50.9 41.9 71% 29.95 0.0
07 23:15 SW 7 10.00 Partly Cloudy FEW095 SCT110 51.4 41.7 70% 29.95 0.0
07 22:55 S 9 10.00 Fair CLR 51.3 42.1 71% 29.94 0.0
07 22:35 SW 6 10.00 A Few Clouds FEW095 51.8 41.5 68% 29.94 0.0
07 22:15 SW 7 10.00 Mostly Cloudy BKN095 52 42.3 70% 29.94 0.0
07 21:55 S 6 10.00 Overcast OVC090 52.2 42.6 70% 29.93 0.0
07 21:35 S 6 10.00 Mostly Cloudy BKN100 52 42.4 70% 29.93 0.0
07 21:15 S 6 10.00 Mostly Cloudy BKN100 51.8 43.2 73% 29.93 0.0
07 20:55 S 5 9.00 A Few Clouds FEW060 52.2 43 71% 29.93 0.0
07 20:35 W 3 9.00 Overcast BKN060 OVC075 53.6 42.4 66% 29.94 0.0
07 20:15 W 3 10.00 Overcast BKN080 OVC100 53.1 43 69% 29.95 0.0
07 19:55 SW 3 9.00 Overcast FEW044 OVC085 53.1 43.2 69% 29.94 0.0
07 19:35 Calm 8.00 Light Rain FEW040 BKN049 52.9 43.3 70% 29.94 0.0
07 19:15 NW 10 7.00 Mostly Cloudy FEW049 BKN070 52.2 43.5 73% 29.96 0.0
07 18:55 NW 17 G 25 9.00 Overcast OVC070 58.1 34.7 42% 29.95 0.0
07 18:35 W 10 10.00 Overcast BKN075 OVC095 59.5 32.2 36% 29.94 0.0
07 18:15 SW 12 10.00 Overcast BKN080 OVC090 59.7 32.2 35% 29.93 0.0
07 17:55 W 12 G 18 10.00 Overcast SCT075 OVC090 60.4 33.4 36% 29.93 0.0
07 17:35 Vrbl 3 10.00 Overcast BKN075 OVC090 60.6 32.7 35% 29.92 0.0
07 17:15 SW 7 G 18 10.00 Mostly Cloudy BKN075 BKN090 60.1 33.6 37% 29.93 0.0
07 16:15 W 12 10.00 Mostly Cloudy BKN080 BKN340 60.6 33.4 36% 29.95 0.0
07 15:55 W 9 10.00 Mostly Cloudy BKN075 60.1 32.5 36% 29.95 0.0
07 15:35 W 5 G 20 10.00 A Few Clouds FEW070 60.1 31.8 35% 29.96 0.0
07 15:15 W 9 G 18 10.00 Fair CLR 60.3 32.4 35% 29.96 0.0
07 14:55 W 12 10.00 Fair CLR 59.9 32.2 35% 29.97 0.0
07 14:35 W 14 10.00 Partly Cloudy FEW065 SCT340 59.4 33.3 38% 29.97 0.0
07 14:15 W 10 G 25 10.00 Partly Cloudy SCT065 59 34.3 40% 29.98 0.0
07 13:55 W 9 10.00 Partly Cloudy SCT065 SCT370 58.1 33.1 39% 29.99 0.0
07 13:35 NW 5 10.00 A Few Clouds FEW065 57.7 31.3 37% 29.99 0.0
07 13:15 N 10 10.00 A Few Clouds FEW310 56.3 33.3 42% 30 0.0
07 12:55 N 13 G 17 10.00 Fair CLR 56.7 32.5 40% 30.01 0.0
07 12:35 NW 12 10.00 Fair CLR 56.3 33.4 42% 30.01 0.0
07 12:15 NW 10 10.00 Fair CLR 56.1 32.2 40% 30.02 0.0
07 11:55 W 8 10.00 Fair CLR 55.9 32.5 41% 30.02 0.0
07 11:35 NW 8 10.00 Fair CLR 54.9 30.6 40% 30.02 0.0
07 11:15 W 9 G 18 10.00 Fair CLR 54.3 30.6 40% 30.02 0.0
07 10:55 NW 9 10.00 Fair CLR 53.4 30.4 41% 30.02 0.0
07 10:35 NW 10 G 16 10.00 Fair CLR 53.1 31.8 44% 30.02 0.0
07 10:15 NW 8 G 18 10.00 Fair CLR 52 28.9 41% 30.02 0.0
07 09:55 NW 8 10.00 Fair CLR 51.4 29.7 43% 30.02 0.0
07 09:35 W 8 10.00 Fair CLR 50.5 30.6 46% 30.02 0.0
07 09:15 W 3 10.00 Fair CLR 49.3 34.7 57% 30.02 0.0
07 08:55 W 3 10.00 Fair CLR 47.8 35.8 63% 30.02 0.0
07 08:35 W 5 10.00 Fair CLR 45.9 36.5 70% 44 30.02 0.0
07 08:15 Calm 10.00 Fair CLR 43.3 39.4 86% 30.01 0.0
07 07:55 Calm 8.00 A Few Clouds FEW160 40.8 38.5 91% 30.01 0.0
07 07:35 Calm 8.00 Partly Cloudy SCT150 38.7 37 94% 30.01 0.0
07 07:15 Calm 8.00 Partly Cloudy SCT150 37.6 37.2 99% 30 0.0
07 06:55 Calm 8.00 Mostly Cloudy BKN150 36.9 36 97% 30 0.0
07 06:35 Calm 8.00 Mostly Cloudy BKN150 BKN180 37 36.1 97% 30.01 0.0
07 06:15 Calm 9.00 Partly Cloudy SCT170 36.9 36.9 100% 30.01 0.0
07 05:55 Calm 9.00 Fair CLR 36.7 36.7 100% 30 0.0
07 05:35 Calm 9.00 Fair CLR 36.1 36.1 100% 30 0.0
07 05:15 Calm 10.00 Fair CLR 36.9 36.5 99% 30 0.0
07 04:55 Calm 10.00 Fair CLR 37.6 37.6 100% 30 0.0
07 04:35 Calm 9.00 Fair CLR 37.6 37 98% 30 0.0
07 04:15 Calm 9.00 Fair CLR 37.8 37 97% 30 0.0
07 03:55 Calm 10.00 Fair CLR 39 37 93% 30 0.0
07 03:35 Calm 10.00 Fair CLR 39.2 37 92% 30 0.0
07 03:15 Calm 10.00 Fair CLR 40.1 36.5 87% 30 0.0
07 02:55 Calm 10.00 Fair CLR 41 36.5 84% 30 0.0
07 02:35 NW 3 10.00 Fair CLR 42.3 36 78% 30 0.0
07 02:15 Calm 10.00 Fair CLR 44.1 34.7 70% 30.01 0.0
07 01:55 NW 6 10.00 Fair CLR 45 35.1 68% 42 30.01 0.0
07 01:35 NW 6 9.00 Fair CLR 45.3 36.1 70% 43 30 0.0
07 01:15 NW 7 10.00 Fair CLR 45.3 37 73% 42 30 0.0
07 00:55 NW 5 9.00 Fair CLR 44.8 37.9 77% 43 29.99 0.0
07 00:15 Calm 10.00 Fair CLR 41.9 41.2 97% 29.99 0.0
06 23:55 Calm 10.00 Fair CLR 42.8 41.7 96% 29.99 0.0
06 23:35 Calm 10.00 Fair CLR 43.9 41.7 92% 29.99 0.0
06 23:15 Calm 10.00 Fair CLR 43.3 41.4 93% 29.99 0.0
06 22:55 Calm 10.00 Fair CLR 44.6 41.4 88% 29.99 0.0
06 22:35 Calm 10.00 Fair CLR 45.7 41.7 86% 29.99 0.0
06 22:15 Calm 10.00 Fair CLR 46.6 42.1 84% 29.99 0.0
06 21:55 Calm 10.00 Fair CLR 49.6 37.6 63% 29.98 0.0
06 21:35 NW 5 10.00 Fair CLR 51.1 36.9 58% 29.98 0.0
06 21:15 NW 5 10.00 Fair CLR 51.6 36.5 56% 29.98 0.0
06 20:55 NW 5 10.00 Fair CLR 52.7 36.3 54% 29.97 0.0
06 20:35 NW 6 10.00 Fair CLR 53.6 36.1 52% 29.96 0.0
06 20:15 NW 5 10.00 A Few Clouds FEW070 54.9 35.8 49% 29.95 0.0
Date Time (edt) Wind (mph) Vis. (mi.) Weather Sky Cond. Air Dwpt Max. Min. Relative Humidity Wind Chill (°F) Heat Index (°F) altimeter (in) sea level (mb) 1 hr 3 hr 6 hr
6 hour
Temperature (ºF) Pressure Precipitation (in)